Time;durP1;ratioP1;P1;durP2;ratioP2;P2;SDS_P1;SDS_P2;PMS_P1;PMS_P2;Temp;Humidity;BMP_temperature;BMP_pressure;BME280_temperature;BME280_humidity;BME280_pressure;Samples;Min_cycle;Max_cycle;Signal;HPM_P1;HPM_P2
2023/04/18 00:02:21;;;;;;;11.05;10.05;;;7.70;99.90;;;;;;5052003;28;20227;-75
2023/04/18 00:04:49;;;;;;;11.07;9.88;;;7.60;99.90;;;;;;5049375;28;20674;-76
2023/04/18 00:07:15;;;;;;;11.25;10.15;;;7.60;99.90;;;;;;5036743;28;20191;-75
2023/04/18 00:09:41;;;;;;;11.38;10.20;;;7.60;99.90;;;;;;5047808;28;20255;-75
2023/04/18 00:12:08;;;;;;;11.18;10.07;;;7.50;99.90;;;;;;5051979;28;20238;-76
2023/04/18 00:14:36;;;;;;;10.85;9.85;;;7.50;99.90;;;;;;5047639;28;20199;-75
2023/04/18 00:17:01;;;;;;;12.75;11.02;;;7.50;99.90;;;;;;5033744;28;20204;-77
2023/04/18 00:19:27;;;;;;;11.80;10.68;;;7.50;99.90;;;;;;5050742;28;20179;-76
2023/04/18 00:21:53;;;;;;;12.50;11.27;;;7.40;99.90;;;;;;5046673;28;20192;-77
2023/04/18 00:24:19;;;;;;;12.23;10.93;;;7.40;99.90;;;;;;5054031;28;20204;-77
2023/04/18 00:26:44;;;;;;;12.68;11.48;;;7.40;99.90;;;;;;5043990;28;20313;-78
2023/04/18 00:29:10;;;;;;;11.85;10.65;;;7.40;99.90;;;;;;5047884;28;20258;-77
2023/04/18 00:31:36;;;;;;;12.35;11.15;;;7.50;99.90;;;;;;5059015;28;20191;-77
2023/04/18 00:34:01;;;;;;;12.75;11.45;;;7.50;99.90;;;;;;5052878;28;20207;-77
2023/04/18 00:36:27;;;;;;;11.60;10.48;;;7.50;99.90;;;;;;5045265;28;20187;-76
2023/04/18 00:38:53;;;;;;;13.98;11.23;;;7.40;99.90;;;;;;5058025;28;20552;-76
2023/04/18 00:41:20;;;;;;;11.60;10.50;;;7.40;99.90;;;;;;5048441;28;20178;-76
2023/04/18 00:43:46;;;;;;;12.45;11.25;;;7.20;99.90;;;;;;5052859;28;20176;-75
2023/04/18 00:46:11;;;;;;;12.88;10.82;;;7.20;99.90;;;;;;5036119;28;20712;-75
2023/04/18 00:48:38;;;;;;;13.23;11.82;;;7.10;99.90;;;;;;5049796;28;20674;-76
2023/04/18 00:51:05;;;;;;;13.00;11.35;;;7.10;99.90;;;;;;5053806;28;20197;-76
2023/04/18 00:53:31;;;;;;;13.98;11.70;;;6.90;99.90;;;;;;5055284;28;20267;-75
2023/04/18 00:55:56;;;;;;;14.55;12.60;;;6.90;99.90;;;;;;5049896;28;20283;-76
2023/04/18 00:58:23;;;;;;;14.00;12.60;;;6.90;99.90;;;;;;5045066;28;20206;-76
2023/04/18 01:00:49;;;;;;;13.48;12.10;;;6.80;99.90;;;;;;5052707;28;20172;-76
2023/04/18 01:03:17;;;;;;;13.77;12.38;;;6.80;99.90;;;;;;5053402;28;20207;-76
2023/04/18 01:05:43;;;;;;;12.77;11.63;;;6.80;99.90;;;;;;5037304;28;20254;-77
2023/04/18 01:08:09;;;;;;;13.43;11.95;;;6.70;99.90;;;;;;5053020;28;20768;-76
2023/04/18 01:10:36;;;;;;;13.50;12.07;;;6.70;99.90;;;;;;5049735;28;20182;-76
2023/04/18 01:13:11;;;;;;;13.65;12.20;;;6.60;99.90;;;;;;5048801;28;20212;-76
2023/04/18 01:15:40;;;;;;;13.40;11.98;;;6.60;99.90;;;;;;5042366;28;20200;-76
2023/04/18 01:18:07;;;;;;;14.82;12.57;;;6.60;99.90;;;;;;5053811;28;20283;-76
2023/04/18 01:20:35;;;;;;;13.25;11.95;;;6.50;99.90;;;;;;5031156;28;20189;-76
2023/04/18 01:23:01;;;;;;;14.43;12.93;;;6.50;99.90;;;;;;5049471;28;20260;-76
2023/04/18 01:25:27;;;;;;;14.55;13.15;;;6.50;99.90;;;;;;5054761;28;20203;-76
2023/04/18 01:27:53;;;;;;;14.30;12.80;;;6.40;99.90;;;;;;5047790;28;20562;-76
2023/04/18 01:30:19;;;;;;;15.30;12.48;;;6.40;99.90;;;;;;5048420;28;20236;-77
2023/04/18 01:32:45;;;;;;;18.08;13.55;;;6.40;99.90;;;;;;5048875;28;20184;-77
2023/04/18 01:35:10;;;;;;;14.05;12.57;;;6.30;99.90;;;;;;5045412;28;20201;-76
2023/04/18 01:37:36;;;;;;;15.85;12.60;;;6.30;99.90;;;;;;5050239;28;20215;-76
2023/04/18 01:40:02;;;;;;;14.88;12.63;;;6.20;99.90;;;;;;5048799;28;20291;-75
2023/04/18 01:42:29;;;;;;;14.07;12.48;;;6.20;99.90;;;;;;5045318;28;20184;-76
2023/04/18 01:44:54;;;;;;;14.07;12.05;;;6.20;99.90;;;;;;5044987;28;20547;-75
2023/04/18 01:47:20;;;;;;;15.07;13.40;;;6.20;99.90;;;;;;5045980;28;20325;-75
2023/04/18 01:49:47;;;;;;;15.07;12.02;;;6.20;99.90;;;;;;5046769;28;20221;-76
2023/04/18 01:52:13;;;;;;;16.08;13.32;;;6.10;99.90;;;;;;5047802;28;20191;-76
2023/04/18 01:54:39;;;;;;;14.93;12.95;;;6.10;99.90;;;;;;5034902;28;20204;-76
2023/04/18 01:57:05;;;;;;;14.70;13.20;;;6.10;99.90;;;;;;5050455;28;20618;-76
2023/04/18 01:59:30;;;;;;;17.92;14.32;;;6.10;99.90;;;;;;5042357;28;20195;-75
2023/04/18 02:01:56;;;;;;;17.05;14.57;;;6.00;99.90;;;;;;5051196;28;20195;-76
2023/04/18 02:04:22;;;;;;;16.40;14.20;;;6.00;99.90;;;;;;5049770;28;20722;-76
2023/04/18 02:06:47;;;;;;;15.82;13.95;;;6.10;99.90;;;;;;5049948;28;20175;-75
2023/04/18 02:09:13;;;;;;;16.38;13.20;;;6.10;99.90;;;;;;5047341;28;20216;-76
2023/04/18 02:11:38;;;;;;;17.63;14.25;;;6.20;99.90;;;;;;5049704;28;20191;-75
2023/04/18 02:14:05;;;;;;;15.90;14.13;;;6.20;99.90;;;;;;5043684;28;20554;-75
2023/04/18 02:16:30;;;;;;;19.65;14.70;;;6.40;99.90;;;;;;5048491;28;20191;-75
2023/04/18 02:18:56;;;;;;;16.83;14.18;;;6.40;99.90;;;;;;5047009;28;20188;-75
2023/04/18 02:21:23;;;;;;;17.08;13.15;;;6.40;99.90;;;;;;5042472;28;20192;-76
2023/04/18 02:23:48;;;;;;;17.95;14.65;;;6.40;99.90;;;;;;5046948;28;20180;-76
2023/04/18 02:26:14;;;;;;;18.20;14.05;;;6.40;99.90;;;;;;5046929;28;20241;-76
2023/04/18 02:28:40;;;;;;;18.30;15.18;;;6.40;99.90;;;;;;5045283;28;20180;-77
2023/04/18 02:31:06;;;;;;;19.60;15.13;;;6.30;99.90;;;;;;5046659;28;20278;-76
2023/04/18 02:33:32;;;;;;;16.70;14.10;;;6.30;99.90;;;;;;5047219;28;20180;-77
2023/04/18 02:35:57;;;;;;;17.70;15.40;;;6.30;99.90;;;;;;5051695;28;20200;-76
2023/04/18 02:38:23;;;;;;;16.50;13.90;;;6.30;99.90;;;;;;5044496;28;20199;-75
2023/04/18 02:40:48;;;;;;;16.75;14.48;;;6.30;99.90;;;;;;5042509;28;20226;-76
2023/04/18 02:43:14;;;;;;;16.05;13.13;;;6.30;99.90;;;;;;5057671;28;20233;-76
2023/04/18 02:45:40;;;;;;;16.15;14.45;;;6.20;99.90;;;;;;5041276;28;20212;-77
2023/04/18 02:48:05;;;;;;;19.05;14.60;;;6.10;99.90;;;;;;5049390;28;20183;-76
2023/04/18 02:50:31;;;;;;;16.15;13.77;;;6.10;99.90;;;;;;5045655;28;20192;-77
2023/04/18 02:52:57;;;;;;;17.40;14.40;;;6.00;99.90;;;;;;5052306;28;20191;-76
2023/04/18 02:55:23;;;;;;;19.58;15.45;;;6.00;99.90;;;;;;5046794;28;20226;-77
2023/04/18 02:57:48;;;;;;;16.92;14.60;;;6.10;99.90;;;;;;5044720;28;20581;-76
2023/04/18 03:00:14;;;;;;;18.48;14.75;;;6.00;99.90;;;;;;5039622;28;20177;-77
2023/04/18 03:02:40;;;;;;;15.90;14.20;;;5.90;99.90;;;;;;5042026;28;20183;-77
2023/04/18 03:05:06;;;;;;;16.58;14.35;;;5.90;99.90;;;;;;5047081;28;20193;-75
2023/04/18 03:07:31;;;;;;;17.83;14.15;;;5.80;99.90;;;;;;5033817;28;20195;-76
2023/04/18 03:09:57;;;;;;;19.50;15.35;;;5.80;99.90;;;;;;5045253;28;20188;-76
2023/04/18 03:12:22;;;;;;;20.27;15.40;;;5.80;99.90;;;;;;5044987;28;20674;-76
2023/04/18 03:14:48;;;;;;;18.30;14.60;;;5.80;99.90;;;;;;5048814;28;20210;-75
2023/04/18 03:17:14;;;;;;;18.70;15.30;;;5.80;99.90;;;;;;5046599;28;20214;-75
2023/04/18 03:19:39;;;;;;;19.23;15.40;;;5.80;99.90;;;;;;5043664;28;20180;-75
2023/04/18 03:22:05;;;;;;;18.05;15.05;;;5.80;99.90;;;;;;5049386;28;20184;-75
2023/04/18 03:24:30;;;;;;;19.38;15.48;;;5.70;99.90;;;;;;5039497;28;20663;-74
2023/04/18 03:26:58;;;;;;;18.42;15.20;;;5.70;99.90;;;;;;5049931;28;20180;-75
2023/04/18 03:29:24;;;;;;;20.73;15.93;;;5.60;99.90;;;;;;5048733;28;20186;-74
2023/04/18 03:31:49;;;;;;;20.48;14.98;;;5.60;99.90;;;;;;5051997;28;20179;-75
2023/04/18 03:34:15;;;;;;;20.27;14.52;;;5.60;99.90;;;;;;5047457;28;20253;-76
2023/04/18 03:36:40;;;;;;;20.88;15.18;;;5.60;99.90;;;;;;5045145;28;20552;-76
2023/04/18 03:39:06;;;;;;;19.02;15.45;;;5.50;99.90;;;;;;5049267;28;20183;-76
2023/04/18 03:41:31;;;;;;;20.65;15.82;;;5.50;99.90;;;;;;5048707;28;20548;-76
2023/04/18 03:43:57;;;;;;;21.13;15.15;;;5.60;99.90;;;;;;5033377;28;20211;-77
2023/04/18 03:46:23;;;;;;;21.83;15.48;;;5.60;99.90;;;;;;5031998;28;20190;-76
2023/04/18 03:48:48;;;;;;;18.20;14.35;;;5.50;99.90;;;;;;5049137;28;20733;-77
2023/04/18 03:51:14;;;;;;;20.33;15.57;;;5.50;99.90;;;;;;5055379;28;20196;-77
2023/04/18 03:53:40;;;;;;;19.33;15.45;;;5.50;99.90;;;;;;5050681;28;20723;-77
2023/04/18 03:56:05;;;;;;;22.15;16.40;;;5.50;99.90;;;;;;5049527;28;20214;-77
2023/04/18 03:58:31;;;;;;;24.17;16.45;;;5.60;99.90;;;;;;5043128;28;20560;-77
2023/04/18 04:00:57;;;;;;;19.52;15.30;;;5.60;99.90;;;;;;5052153;28;20176;-76
2023/04/18 04:03:22;;;;;;;19.92;15.75;;;5.50;99.90;;;;;;5046167;28;20190;-77
2023/04/18 04:05:48;;;;;;;23.45;16.17;;;5.50;99.90;;;;;;5054062;28;20192;-77
2023/04/18 04:08:15;;;;;;;21.98;16.63;;;5.50;99.90;;;;;;5047814;28;20191;-76
2023/04/18 04:10:40;;;;;;;23.70;15.75;;;5.40;99.90;;;;;;5052461;28;20176;-76
2023/04/18 04:13:06;;;;;;;20.80;15.55;;;5.40;99.90;;;;;;5054210;28;20694;-76
2023/04/18 04:15:31;;;;;;;21.25;16.02;;;5.30;99.90;;;;;;5050610;28;20255;-76
2023/04/18 04:17:57;;;;;;;21.77;16.63;;;5.30;99.90;;;;;;5054003;28;20207;-76
2023/04/18 04:20:24;;;;;;;23.98;17.30;;;5.40;99.90;;;;;;5049874;28;20669;-76
2023/04/18 04:22:52;;;;;;;21.77;16.40;;;5.50;99.90;;;;;;5050403;28;20176;-76
2023/04/18 04:25:18;;;;;;;24.88;16.73;;;5.50;99.90;;;;;;5051754;28;20331;-76
2023/04/18 04:27:44;;;;;;;19.23;14.95;;;5.40;99.90;;;;;;5052345;28;20188;-76
2023/04/18 04:30:10;;;;;;;22.85;16.52;;;5.40;99.90;;;;;;5049135;28;20191;-77
2023/04/18 04:32:37;;;;;;;23.60;15.57;;;5.40;99.90;;;;;;5049634;28;20197;-76
2023/04/18 04:35:03;;;;;;;20.73;16.38;;;5.40;99.90;;;;;;5048432;28;20309;-76
2023/04/18 04:37:28;;;;;;;21.35;16.58;;;5.40;99.90;;;;;;5049229;28;20696;-76
2023/04/18 04:39:55;;;;;;;21.05;16.50;;;5.40;99.90;;;;;;5049803;28;20183;-76
2023/04/18 04:42:24;;;;;;;21.17;16.63;;;5.40;99.90;;;;;;5045412;28;20594;-75
2023/04/18 04:44:49;;;;;;;21.77;17.90;;;5.50;99.90;;;;;;5038860;28;20200;-75
2023/04/18 04:47:15;;;;;;;21.20;16.70;;;5.50;99.90;;;;;;5042628;28;20662;-75
2023/04/18 04:49:40;;;;;;;22.40;16.88;;;5.50;99.90;;;;;;5039916;28;20274;-76
2023/04/18 04:52:06;;;;;;;23.25;17.80;;;5.60;99.90;;;;;;5052413;28;20200;-75
2023/04/18 04:54:32;;;;;;;22.73;16.88;;;5.70;99.90;;;;;;5047399;28;20200;-75
2023/04/18 04:56:57;;;;;;;20.70;17.13;;;5.80;99.90;;;;;;5044932;28;20208;-76
2023/04/18 04:59:23;;;;;;;19.60;16.00;;;5.90;99.90;;;;;;5045326;28;20535;-75
2023/04/18 05:01:48;;;;;;;18.67;15.13;;;6.10;99.90;;;;;;5033347;28;20280;-76
2023/04/18 05:04:14;;;;;;;22.35;16.90;;;6.30;99.90;;;;;;5042775;28;20286;-75
2023/04/18 05:06:40;;;;;;;20.75;16.13;;;6.60;99.90;;;;;;5044849;28;20188;-76
2023/04/18 05:09:05;;;;;;;22.95;16.60;;;6.80;99.90;;;;;;5042561;28;20176;-75
2023/04/18 05:11:31;;;;;;;21.63;16.63;;;7.10;99.90;;;;;;5044818;28;20198;-75
2023/04/18 05:13:56;;;;;;;22.17;15.55;;;7.20;99.90;;;;;;5054675;28;20553;-75
2023/04/18 05:16:22;;;;;;;20.52;14.93;;;7.40;99.90;;;;;;5049234;28;20234;-74
2023/04/18 05:18:48;;;;;;;21.65;16.73;;;7.70;99.90;;;;;;5049205;28;20211;-75
2023/04/18 05:21:13;;;;;;;17.67;14.82;;;7.80;99.90;;;;;;5048581;28;20196;-75
2023/04/18 05:23:39;;;;;;;23.67;16.15;;;7.90;99.90;;;;;;5051178;28;20296;-76
2023/04/18 05:26:05;;;;;;;22.00;16.23;;;8.10;99.90;;;;;;5049324;28;20657;-80
2023/04/18 05:28:31;;;;;;;19.92;15.20;;;8.10;99.90;;;;;;5053452;28;20211;-78
2023/04/18 05:31:00;;;;;;;23.27;16.38;;;8.10;99.90;;;;;;5046380;28;20196;-78
2023/04/18 05:33:30;;;;;;;19.02;14.77;;;8.10;99.90;;;;;;5054742;28;20187;-77
2023/04/18 05:35:56;;;;;;;22.30;15.80;;;8.00;99.90;;;;;;5055111;28;20205;-78
2023/04/18 05:38:22;;;;;;;23.73;16.42;;;8.00;99.90;;;;;;5050528;28;20211;-79
2023/04/18 05:40:49;;;;;;;21.35;16.13;;;8.20;99.90;;;;;;5048485;28;20177;-76
2023/04/18 05:43:18;;;;;;;18.67;16.13;;;8.30;99.90;;;;;;5056298;28;20171;-76
2023/04/18 05:45:44;;;;;;;20.73;15.23;;;8.40;99.90;;;;;;5048377;28;20207;-77
2023/04/18 05:48:10;;;;;;;22.17;15.85;;;8.50;99.90;;;;;;5052148;28;20187;-78
2023/04/18 05:50:35;;;;;;;23.25;16.35;;;8.70;99.90;;;;;;5047239;28;20203;-77
2023/04/18 05:53:01;;;;;;;22.20;14.73;;;8.70;99.90;;;;;;5051605;28;20311;-78
2023/04/18 05:55:27;;;;;;;20.23;14.85;;;8.80;99.90;;;;;;5045883;28;20296;-77
2023/04/18 05:57:52;;;;;;;22.13;15.30;;;9.10;99.90;;;;;;5048024;28;20231;-77
2023/04/18 06:00:18;;;;;;;20.45;14.15;;;9.40;99.90;;;;;;5050799;28;20190;-75
2023/04/18 06:02:44;;;;;;;18.98;14.75;;;9.60;99.90;;;;;;5047519;28;20175;-75
2023/04/18 06:05:11;;;;;;;21.75;16.30;;;9.70;99.90;;;;;;5049119;28;20204;-74
2023/04/18 06:07:36;;;;;;;20.40;15.25;;;9.80;99.90;;;;;;5052177;28;20534;-74
2023/04/18 06:10:04;;;;;;;21.48;14.30;;;9.70;99.90;;;;;;5035799;28;20197;-75
2023/04/18 06:12:29;;;;;;;20.80;15.27;;;9.50;99.90;;;;;;5046688;28;20183;-75
2023/04/18 06:14:55;;;;;;;21.00;14.50;;;9.40;99.90;;;;;;5047501;28;20211;-75
2023/04/18 06:17:21;;;;;;;23.90;16.52;;;9.30;99.90;;;;;;5048851;28;20204;-74
2023/04/18 06:19:46;;;;;;;21.75;15.10;;;9.20;99.90;;;;;;5034628;28;20195;-75
2023/04/18 06:22:12;;;;;;;19.50;14.60;;;9.20;99.90;;;;;;5047518;28;20179;-75
2023/04/18 06:24:37;;;;;;;21.88;14.82;;;9.20;99.90;;;;;;5046374;28;20196;-76
2023/04/18 06:27:04;;;;;;;18.05;14.63;;;9.40;99.90;;;;;;5049337;28;20195;-75
2023/04/18 06:29:32;;;;;;;20.42;14.90;;;9.50;99.90;;;;;;5043915;28;20233;-76
2023/04/18 06:31:58;;;;;;;21.77;15.35;;;9.60;99.90;;;;;;5048483;28;20183;-76
2023/04/18 06:34:23;;;;;;;21.48;15.45;;;9.70;99.90;;;;;;5057570;28;20203;-74
2023/04/18 06:36:49;;;;;;;20.80;15.93;;;10.00;99.90;;;;;;5046642;28;20236;-74
2023/04/18 06:39:15;;;;;;;21.30;15.20;;;10.00;99.90;;;;;;5051798;28;20196;-74
2023/04/18 06:41:40;;;;;;;21.65;16.50;;;10.30;99.90;;;;;;5050340;28;20180;-74
2023/04/18 06:44:06;;;;;;;19.35;15.50;;;10.70;99.90;;;;;;5047568;28;20203;-75
2023/04/18 06:46:32;;;;;;;21.85;15.27;;;10.90;99.90;;;;;;5050029;28;20195;-76
2023/04/18 06:48:58;;;;;;;20.95;15.35;;;11.00;99.90;;;;;;5047175;28;20188;-75
2023/04/18 06:51:23;;;;;;;19.33;15.00;;;11.20;99.90;;;;;;5046088;28;20555;-74
2023/04/18 06:53:51;;;;;;;18.10;14.55;;;11.00;99.90;;;;;;5049699;28;20184;-75
2023/04/18 06:56:19;;;;;;;19.20;15.07;;;11.20;99.90;;;;;;5055024;28;20200;-78
2023/04/18 06:58:45;;;;;;;19.95;15.65;;;11.10;99.90;;;;;;5048920;28;20278;-79
2023/04/18 07:01:10;;;;;;;16.83;14.50;;;11.10;99.90;;;;;;5050594;28;20184;-77
2023/04/18 07:03:36;;;;;;;19.77;14.73;;;11.20;99.90;;;;;;5033712;28;20676;-79
2023/04/18 07:06:02;;;;;;;17.33;14.25;;;11.00;99.90;;;;;;5040611;28;20270;-77
2023/04/18 07:08:28;;;;;;;19.52;14.68;;;11.10;99.90;;;;;;5055537;28;20619;-77
2023/04/18 07:10:53;;;;;;;19.67;15.90;;;11.30;99.90;;;;;;5057911;28;20179;-77
2023/04/18 07:13:19;;;;;;;18.13;14.27;;;11.10;99.90;;;;;;5054680;28;20179;-77
2023/04/18 07:15:44;;;;;;;19.08;15.20;;;10.90;99.90;;;;;;5052521;28;20204;-77
2023/04/18 07:18:10;;;;;;;18.02;15.02;;;11.00;99.90;;;;;;5048324;28;20210;-77
2023/04/18 07:20:35;;;;;;;19.55;14.85;;;11.00;99.90;;;;;;5055980;28;20188;-77
2023/04/18 07:23:01;;;;;;;17.55;14.68;;;11.00;99.90;;;;;;5051804;28;20301;-77
2023/04/18 07:25:27;;;;;;;18.05;14.25;;;10.70;99.90;;;;;;5056712;28;20248;-76
2023/04/18 07:27:52;;;;;;;17.92;14.43;;;10.60;99.90;;;;;;5054809;28;20667;-77
2023/04/18 07:30:18;;;;;;;17.35;14.18;;;10.50;99.90;;;;;;5048819;28;20270;-77
2023/04/18 07:32:46;;;;;;;16.25;13.93;;;10.70;99.90;;;;;;5056463;28;20184;-76
2023/04/18 07:35:11;;;;;;;17.42;14.07;;;10.70;99.90;;;;;;5037192;28;20682;-77
2023/04/18 07:37:37;;;;;;;16.80;13.98;;;10.80;99.90;;;;;;5053347;28;20207;-77
2023/04/18 07:40:04;;;;;;;14.85;13.18;;;10.90;99.90;;;;;;5052091;28;20543;-76
2023/04/18 07:42:29;;;;;;;14.98;13.38;;;11.10;99.90;;;;;;5044075;28;20254;-77
2023/04/18 07:44:58;;;;;;;16.42;14.18;;;11.20;99.90;;;;;;5056789;28;20234;-76
2023/04/18 07:47:25;;;;;;;15.50;13.38;;;11.20;99.90;;;;;;5055231;28;20712;-77
2023/04/18 07:49:51;;;;;;;14.88;13.38;;;11.50;99.90;;;;;;5056123;28;20234;-77
2023/04/18 07:52:17;;;;;;;16.73;13.73;;;11.50;99.90;;;;;;5044221;28;20248;-77
2023/04/18 07:54:43;;;;;;;15.02;12.40;;;11.70;99.90;;;;;;5055997;28;20225;-76
2023/04/18 07:57:09;;;;;;;14.98;12.38;;;12.30;99.90;;;;;;5052116;28;20208;-77
2023/04/18 07:59:35;;;;;;;13.40;12.07;;;12.70;99.90;;;;;;5036658;28;20212;-77
2023/04/18 08:02:01;;;;;;;12.98;11.68;;;12.60;99.90;;;;;;5054700;28;20168;-76
2023/04/18 08:04:27;;;;;;;15.63;13.10;;;12.80;99.90;;;;;;5043379;28;20261;-77
2023/04/18 08:06:53;;;;;;;15.30;13.40;;;12.70;99.90;;;;;;5054428;28;20172;-77
2023/04/18 08:09:19;;;;;;;15.77;12.50;;;12.90;99.90;;;;;;5048928;28;20637;-77
2023/04/18 08:11:45;;;;;;;13.95;12.55;;;12.90;99.90;;;;;;5056645;28;20181;-77
2023/04/18 08:14:11;;;;;;;15.07;12.68;;;13.10;99.90;;;;;;5057113;28;20266;-76
2023/04/18 08:16:37;;;;;;;14.25;12.23;;;13.40;99.90;;;;;;5052544;28;20181;-77
2023/04/18 08:19:02;;;;;;;15.35;11.85;;;13.30;99.90;;;;;;5036302;28;20215;-77
2023/04/18 08:21:28;;;;;;;14.57;12.48;;;13.80;99.90;;;;;;5057102;28;20188;-79
2023/04/18 08:23:54;;;;;;;16.25;12.80;;;14.00;99.90;;;;;;5039356;28;20199;-77
2023/04/18 08:26:20;;;;;;;12.85;11.52;;;14.30;99.90;;;;;;5052079;28;20710;-77
2023/04/18 08:28:46;;;;;;;14.10;11.00;;;14.10;99.90;;;;;;5049829;28;20196;-76
2023/04/18 08:31:13;;;;;;;12.52;11.23;;;14.30;99.90;;;;;;5052372;28;20180;-80
2023/04/18 08:33:39;;;;;;;12.02;10.82;;;14.00;99.90;;;;;;5045125;28;20233;-79
2023/04/18 08:36:05;;;;;;;13.07;11.55;;;14.20;99.90;;;;;;5045937;28;20636;-78
2023/04/18 08:38:30;;;;;;;13.15;11.75;;;14.10;99.90;;;;;;5058086;28;20210;-77
2023/04/18 08:40:56;;;;;;;13.75;11.32;;;14.20;99.90;;;;;;5058304;28;20651;-78
2023/04/18 08:43:23;;;;;;;12.63;11.48;;;14.40;99.90;;;;;;5054661;28;20175;-78
2023/04/18 08:45:49;;;;;;;12.95;11.75;;;14.40;99.90;;;;;;5053834;28;20229;-79
2023/04/18 08:48:16;;;;;;;11.73;10.55;;;14.60;99.90;;;;;;5031019;28;20675;-79
2023/04/18 08:50:43;;;;;;;12.90;10.95;;;15.00;99.90;;;;;;5050855;28;20189;-79
2023/04/18 08:53:09;;;;;;;12.27;10.35;;;14.80;99.90;;;;;;5033344;28;20600;-78
2023/04/18 08:55:36;;;;;;;12.90;10.90;;;15.00;99.90;;;;;;5037552;28;20291;-79
2023/04/18 08:58:03;;;;;;;11.43;10.35;;;15.30;99.90;;;;;;5052769;28;20561;-78
2023/04/18 09:00:29;;;;;;;10.48;9.50;;;15.50;99.90;;;;;;5038558;28;20203;-79
2023/04/18 09:02:55;;;;;;;11.55;10.48;;;14.80;99.90;;;;;;5039912;28;20267;-79
2023/04/18 09:05:23;;;;;;;11.95;10.85;;;14.10;99.90;;;;;;5061879;28;20237;-79
2023/04/18 09:07:52;;;;;;;11.75;10.55;;;13.70;99.90;;;;;;5057019;28;20180;-79
2023/04/18 09:10:25;;;;;;;11.10;9.98;;;13.60;99.90;;;;;;5054071;28;20238;-78
2023/04/18 09:12:50;;;;;;;12.90;11.60;;;13.70;99.90;;;;;;5036549;28;20210;-78
2023/04/18 09:15:19;;;;;;;12.50;10.52;;;13.50;99.90;;;;;;5045215;28;20694;-81
2023/04/18 09:17:51;;;;;;;11.85;10.60;;;13.60;99.90;;;;;;5048175;28;20204;-82
2023/04/18 09:20:34;;;;;;;11.60;10.40;;;14.00;99.90;;;;;;5049364;28;20198;-82
2023/04/18 09:23:04;;;;;;;13.35;10.50;;;14.20;99.90;;;;;;5066292;28;20187;-82
2023/04/18 09:25:33;;;;;;;12.15;10.95;;;14.20;99.90;;;;;;5064895;28;20666;-82
2023/04/18 09:28:00;;;;;;;11.60;10.43;;;13.50;99.90;;;;;;5057956;28;20187;-82
2023/04/18 09:30:36;;;;;;;11.93;10.73;;;13.20;99.90;;;;;;5058865;28;20180;-78
2023/04/18 09:33:06;;;;;;;11.18;10.18;;;13.20;99.90;;;;;;5048656;28;20258;-75
2023/04/18 09:35:32;;;;;;;13.57;11.25;;;13.20;99.90;;;;;;5060082;28;20195;-76
2023/04/18 09:37:57;;;;;;;11.82;10.52;;;13.50;99.90;;;;;;5042337;28;20339;-75
2023/04/18 09:40:23;;;;;;;13.35;11.43;;;13.20;99.90;;;;;;5051701;28;20180;-75
2023/04/18 09:42:52;;;;;;;11.95;10.82;;;12.80;99.90;;;;;;5055375;28;20240;-75
2023/04/18 09:45:18;;;;;;;12.48;11.18;;;13.00;99.90;;;;;;5048350;28;20204;-76
2023/04/18 09:47:43;;;;;;;10.65;9.65;;;12.90;99.90;;;;;;5053806;28;20196;-75
2023/04/18 09:50:10;;;;;;;10.52;9.57;;;13.50;99.90;;;;;;5049548;28;20188;-75
2023/04/18 09:52:37;;;;;;;11.43;10.32;;;13.90;99.90;;;;;;5054564;28;20180;-75
2023/04/18 09:55:06;;;;;;;11.48;10.32;;;14.00;99.90;;;;;;5054445;28;20206;-75
2023/04/18 09:57:33;;;;;;;11.60;10.40;;;14.10;99.90;;;;;;5048080;28;20257;-75
2023/04/18 10:00:09;;;;;;;11.48;10.35;;;14.00;99.90;;;;;;5045656;28;20231;-76
2023/04/18 10:02:55;;;;;;;11.20;10.07;;;13.90;99.90;;;;;;5051668;28;20175;-76
2023/04/18 10:05:24;;;;;;;11.18;10.07;;;14.20;99.90;;;;;;5045593;28;20208;-75
2023/04/18 10:07:51;;;;;;;11.95;10.77;;;14.50;99.90;;;;;;5049520;28;20188;-75
2023/04/18 10:10:17;;;;;;;12.23;11.02;;;14.40;99.90;;;;;;5046401;28;20216;-76
2023/04/18 10:12:46;;;;;;;12.05;10.77;;;14.70;99.90;;;;;;5038416;28;20221;-76
2023/04/18 10:15:14;;;;;;;12.00;10.80;;;14.70;99.90;;;;;;5050464;28;20620;-75
2023/04/18 10:18:01;;;;;;;11.13;10.10;;;14.90;99.90;;;;;;5058640;28;20302;-76
2023/04/18 10:20:29;;;;;;;11.27;10.18;;;13.70;99.90;;;;;;5050786;28;20274;-77
2023/04/18 10:22:56;;;;;;;11.32;10.20;;;14.00;99.90;;;;;;5046776;28;20229;-76
2023/04/18 10:25:34;;;;;;;11.57;10.48;;;14.30;99.90;;;;;;5059852;28;20192;-77
2023/04/18 10:28:01;;;;;;;10.55;9.52;;;14.30;99.90;;;;;;5049160;28;20248;-77
2023/04/18 10:30:39;;;;;;;11.15;10.05;;;14.90;99.90;;;;;;5048952;28;20179;-76
2023/04/18 10:33:34;;;;;;;11.43;10.18;;;14.50;99.90;;;;;;5048894;28;20179;-77
2023/04/18 10:36:11;;;;;;;11.07;10.07;;;14.80;99.90;;;;;;5049676;28;20258;-76
2023/04/18 10:38:49;;;;;;;10.80;9.80;;;14.40;99.90;;;;;;5054222;28;20294;-75
2023/04/18 10:41:25;;;;;;;10.75;9.68;;;14.50;99.90;;;;;;5051713;28;20179;-76
2023/04/18 10:44:06;;;;;;;11.13;10.13;;;14.40;99.90;;;;;;5033087;28;20187;-76
2023/04/18 10:46:35;;;;;;;10.93;9.93;;;14.30;99.90;;;;;;5051094;28;21211;-76
2023/04/18 10:49:26;;;;;;;9.85;8.95;;;14.40;99.90;;;;;;5031504;28;20582;-76
2023/04/18 10:51:57;;;;;;;10.52;9.52;;;14.90;99.90;;;;;;5035261;28;20183;-76
2023/04/18 10:55:01;;;;;;;10.00;9.10;;;15.30;99.90;;;;;;5051676;28;20212;-76
2023/04/18 10:57:47;;;;;;;10.63;9.63;;;15.50;99.90;;;;;;5028552;28;20284;-76
2023/04/18 11:00:19;;;;;;;9.18;8.40;;;15.90;99.90;;;;;;5054375;28;20253;-76
2023/04/18 11:02:54;;;;;;;9.93;9.02;;;16.20;99.90;;;;;;5053754;28;20171;-76
2023/04/18 11:05:23;;;;;;;10.75;9.80;;;16.70;99.90;;;;;;5028343;28;21093;-76
2023/04/18 11:07:49;;;;;;;8.65;7.85;;;16.60;99.90;;;;;;5041577;28;20214;-76
2023/04/18 11:10:23;;;;;;;9.20;8.40;;;17.00;99.90;;;;;;5048349;28;20200;-77
2023/04/18 11:12:50;;;;;;;9.10;8.30;;;16.70;99.90;;;;;;5048847;28;20634;-77
2023/04/18 11:15:21;;;;;;;8.68;7.95;;;17.00;99.90;;;;;;5037179;28;20214;-77
2023/04/18 11:18:00;;;;;;;9.10;8.30;;;17.10;99.90;;;;;;5046504;28;20234;-77
2023/04/18 11:20:26;;;;;;;9.27;8.38;;;17.30;99.90;;;;;;5043395;28;20634;-77
2023/04/18 11:22:52;;;;;;;9.40;8.60;;;16.60;99.90;;;;;;5048951;28;20916;-78
2023/04/18 11:25:22;;;;;;;9.75;8.85;;;16.60;99.90;;;;;;5034400;28;20200;-77
2023/04/18 11:27:53;;;;;;;9.32;8.52;;;16.10;99.90;;;;;;5051460;28;20202;-77
2023/04/18 11:30:20;;;;;;;8.27;7.55;;;15.70;99.90;;;;;;5053052;28;20180;-77
2023/04/18 11:32:45;;;;;;;8.35;7.47;;;15.90;99.90;;;;;;5050710;28;20184;-77
2023/04/18 11:35:12;;;;;;;9.05;8.25;;;16.40;99.90;;;;;;5052168;28;20254;-77
2023/04/18 11:37:39;;;;;;;8.48;7.78;;;16.70;99.90;;;;;;5048405;28;20230;-77
2023/04/18 11:40:07;;;;;;;8.45;7.75;;;16.70;99.90;;;;;;5047024;28;20187;-77
2023/04/18 11:42:34;;;;;;;10.88;8.35;;;17.00;99.90;;;;;;5051524;28;20181;-77
2023/04/18 11:45:00;;;;;;;9.25;8.45;;;17.00;99.90;;;;;;5034750;28;20211;-77
2023/04/18 11:47:32;;;;;;;8.85;8.05;;;17.00;99.90;;;;;;5054522;28;20180;-77
2023/04/18 11:50:03;;;;;;;8.95;8.25;;;16.70;99.90;;;;;;5036637;28;20186;-77
2023/04/18 11:52:30;;;;;;;8.55;7.75;;;16.60;99.90;;;;;;5036548;28;20192;-77
2023/04/18 11:55:08;;;;;;;9.00;8.20;;;18.00;99.90;;;;;;5054557;28;20219;-77
2023/04/18 11:57:34;;;;;;;8.07;7.47;;;19.70;98.10;;;;;;5054557;28;20196;-77
2023/04/18 12:00:00;;;;;;;8.82;8.05;;;19.60;96.70;;;;;;5041194;28;20179;-77
2023/04/18 12:02:46;;;;;;;7.85;7.15;;;19.90;95.90;;;;;;5057372;28;20219;-77
2023/04/18 12:05:30;;;;;;;8.20;7.47;;;21.70;93.30;;;;;;5026977;28;20203;-77
2023/04/18 12:08:03;;;;;;;8.75;8.05;;;21.90;91.80;;;;;;5051173;28;20198;-77
2023/04/18 12:10:29;;;;;;;9.15;8.35;;;21.30;90.10;;;;;;5056548;28;20658;-77
2023/04/18 12:12:59;;;;;;;8.10;7.40;;;20.30;90.80;;;;;;5057331;28;20194;-77
2023/04/18 12:15:27;;;;;;;8.57;7.88;;;21.00;91.00;;;;;;5038969;28;20199;-77
2023/04/18 12:18:00;;;;;;;7.95;7.25;;;20.90;89.90;;;;;;5034964;28;20730;-77
2023/04/18 12:20:35;;;;;;;7.07;6.50;;;21.30;88.90;;;;;;5051752;28;20195;-77
2023/04/18 12:23:05;;;;;;;6.65;6.15;;;22.10;87.10;;;;;;5057772;28;20293;-78
2023/04/18 12:25:31;;;;;;;7.90;7.15;;;23.20;83.90;;;;;;5033747;28;20214;-77
2023/04/18 12:27:59;;;;;;;7.38;6.00;;;23.40;81.00;;;;;;5058396;28;20554;-77
2023/04/18 12:30:32;;;;;;;5.72;5.32;;;23.80;79.80;;;;;;5029194;28;20267;-78
2023/04/18 12:33:01;;;;;;;6.22;5.63;;;25.10;77.90;;;;;;5038449;28;20285;-77
2023/04/18 12:35:28;;;;;;;5.85;5.35;;;25.20;70.70;;;;;;5048475;28;20192;-77
2023/04/18 12:37:56;;;;;;;6.65;6.15;;;23.70;74.40;;;;;;5051329;28;20283;-77